Search for airport 
image banner adimage banner adimage banner ad
image banner ad

75CA - Civic Center

Located in Huntington Beach, United States

ICAO - 75CA, IATA -

Data provided by Airmate  

General information

Coordinates: N33°40'41" W118°0'1"
Elevation is 157 feet MSL.
Magnetic variation is 14° East
View others Airports in California

Operational data

Special qualification required
Current time UTC:
Current local time:
METAR: KSNA 221353Z VRB03KT 9SM BKN013 19/14 A2993 RMK AO2 SLP133 T01890139
TAF: KSNA 221137Z 2212/2312 VRB04KT P6SM BKN012 TEMPO 2212/2215 FEW013 FM221600 VRB05KT P6SM SCT012 BKN150 FM222000 24009KT P6SM BKN200 FM230300 20005KT P6SM SCT018 FM230800 VRB04KT P6SM BKN012
View NOTAMs / SUP AIP / TFR affecting this airport [VIEW]
Communications frequencies: [VIEW]

Runways:

Airport contact information

Address: Huntington Beach United States

Satellite view of 75CA